Aeroporto :
LOGIN :

Iscrizione | Disclaimer

   EN    FR    IT 

 










Sommario :    VFR   VFR Marginale   IFR   IFR Intensivo   IFR Molto Intensivo
Visibilità : 
Base nubi : 
>= 8 km
>= 3000ft
5 / 8 km
1000 / 3000 ft
1500m / 5 km
500 / 1000 ft
800 / 1500m
200 / 500 ft
< 800m
< 200 ft
Simboli :   Temporali  Nebbia  Neve Forte  Precipitazioni Forti  Vento > 20 kt
SIGMETs :   Varie  Temporali  Ghiacco  Turbolenza  Onda orograficha  Ceneri Vulcaniche






- Altitudine del aeroporto : 416 ft
- Codice IATA : OVD


LEAS - Asturias

ULTIMO METAR :
  • 160630Z 12003KT 090V160 5000 RA SCT020 SCT049 BKN060 09/09 Q0999 NOSIG

METARs OBSOLETI :
  • 160612Z VRB01KT 4000 RA SCT016 SCT021 BKN048 09/09 Q1000 NOSIG
  • 160600Z VRB02KT 6000 RA SCT016 SCT021 BKN050 09/09 Q1000 NOSIG
  • 160530Z VRB02KT 6000 RA BKN012 BKN020 09/09 Q1000 NOSIG
  • 160500Z 11003KT 080V160 7000 -RA SCT011 BKN016 09/09 Q1000 TEMPO RA
  • 160430Z AUTO VRB02KT 7000 RA FEW041 OVC050 09/09 Q1000
  • 160400Z AUTO 00000KT 6000 -RA FEW049 BKN059 09/09 Q1001

TAF AMD TAF LEAS
Valido dal 16 a 04 ore il 17 a 03 ore UTC


160413Z 1604/1703 15005KT 8000 RA FEW015 BKN020 TX11/1614Z TN08/1607Z
BECMG 1606/1608 33010KT
TEMPO 1606/1621 3000 -RA BR BKN005 BKN010



MetMap, La meteo Aeronautica in un colpo d'occhio ! - Copyright ORBIFLY Dicembre 2007 - Disclaimer

ORBIFLY MET'MAP TEAM :

Programmazione e sviluppo : Alexandra Zaïnal
Concezione : Baudouin d'Aumeries
Aiuto per la programmazione : Marc-Olivier Méhu
Supporto tecnico e logistico : Manuel Goepfert
Aiuto per la traduzione : Arnaldo La Scala

Contatto : metmap@orbifly.com




FONTI E CREDITI :

   NOAA